Terminal Aerodrome Forecast
Issued by NWS

Home | Current Version | Previous Version | Text Only | Print | Product List | Glossary On
Versions: 1 2 3 4 5 6 7 8 9 10 11 12 13 14 15 16
000
FTUS44 KMOB 301138
TAFBFM
TAF
KBFM 301138Z 3012/0112 12009KT P6SM BKN007 OVC012
     FM301500 14015KT P6SM OVC025
      TEMPO 3020/3024 4SM TSRA BKN015CB
     FM010200 14006KT P6SM FEW030 BKN070
     FM010600 17004KT 3SM BR OVC007=

USA.gov is the U.S. government's official web portal to all federal, state and local government web resources and services.